createdAt,value
2023-08-05T00:01:04.735Z,83.96
2023-08-05T00:03:37.208Z,84.32
2023-08-05T00:06:07.047Z,84.58
2023-08-05T00:08:36.859Z,84.33
2023-08-05T00:11:06.815Z,84.64
2023-08-05T00:13:36.992Z,84.33
2023-08-05T00:16:07.978Z,84.92
2023-08-05T00:18:40.526Z,85.19
2023-08-05T00:21:10.358Z,85.07
2023-08-05T00:23:40.173Z,84.96
2023-08-05T00:26:10.021Z,85.79
2023-08-05T00:28:39.835Z,85.76
2023-08-05T00:31:11.876Z,85.42
2023-08-05T00:33:44.246Z,85.55
2023-08-05T00:36:15.269Z,85.84
2023-08-05T00:38:45.072Z,85.53
2023-08-05T00:41:14.853Z,86.02
2023-08-05T00:43:44.755Z,86.27
2023-08-05T00:46:15.055Z,85.96
2023-08-05T00:48:47.512Z,86.19
2023-08-05T00:51:17.328Z,86.75
2023-08-05T00:53:48.048Z,86.57
2023-08-05T00:56:18.086Z,85.78
2023-08-05T00:58:48.393Z,86.05
2023-08-05T01:01:18.195Z,86.63
2023-08-05T01:03:50.707Z,86.60
2023-08-05T01:06:20.898Z,86.63
2023-08-05T01:08:50.804Z,86.81
2023-08-05T01:11:20.734Z,86.74
2023-08-05T01:13:51.426Z,86.93
2023-08-05T01:16:21.262Z,87.10
2023-08-05T01:18:54.315Z,87.52
2023-08-05T01:21:28.653Z,87.54
2023-08-05T01:24:04.629Z,87.43
2023-08-05T01:26:37.856Z,87.42
2023-08-05T01:29:08.778Z,87.88
2023-08-05T01:31:38.707Z,87.55
2023-08-05T01:34:09.434Z,87.89
2023-08-05T01:36:39.148Z,87.85
2023-08-05T01:39:08.856Z,87.64
2023-08-05T01:41:41.214Z,87.80
2023-08-05T01:44:11.032Z,88.19
2023-08-05T01:46:40.842Z,88.58
2023-08-05T01:49:10.606Z,88.51
2023-08-05T01:51:40.324Z,88.48
2023-08-05T01:54:10.038Z,88.31
2023-08-05T01:56:42.330Z,88.28
2023-08-05T01:59:12.128Z,88.45
2023-08-05T02:01:46.133Z,88.53
2023-08-05T02:04:16.648Z,88.05
2023-08-05T02:06:46.634Z,88.17
2023-08-05T02:09:16.396Z,88.17
2023-08-05T02:11:48.749Z,88.44
2023-08-05T02:14:19.122Z,88.96
2023-08-05T02:16:49.419Z,88.91
2023-08-05T02:19:19.501Z,88.79
2023-08-05T02:21:49.218Z,88.75
2023-08-05T02:24:18.962Z,88.65
2023-08-05T02:26:53.018Z,88.88
2023-08-05T02:29:22.941Z,88.49
2023-08-05T02:31:52.725Z,88.79
2023-08-05T02:34:22.704Z,89.18
2023-08-05T02:36:52.816Z,89.58
2023-08-05T02:39:23.487Z,89.65
2023-08-05T02:41:55.820Z,89.46
2023-08-05T02:44:25.911Z,89.64
2023-08-05T02:46:55.694Z,90.04
2023-08-05T02:49:25.585Z,89.69
2023-08-05T02:51:55.462Z,89.83
2023-08-05T02:54:25.310Z,90.22
2023-08-05T02:56:57.604Z,90.27
2023-08-05T02:59:27.392Z,90.00
2023-08-05T03:01:57.338Z,89.93
2023-08-05T03:04:27.172Z,89.82
2023-08-05T03:06:56.975Z,89.79
2023-08-05T03:09:26.954Z,89.94
2023-08-05T03:11:59.375Z,89.82
2023-08-05T03:14:30.211Z,90.56
2023-08-05T03:17:00.360Z,90.38
2023-08-05T03:19:30.430Z,90.41
2023-08-05T03:22:00.673Z,90.32
2023-08-05T03:24:30.517Z,90.65
2023-08-05T03:27:03.214Z,90.87
2023-08-05T03:29:34.012Z,91.17
2023-08-05T03:32:04.126Z,91.07
2023-08-05T03:34:34.317Z,90.94
2023-08-05T03:37:06.198Z,91.17
2023-08-05T03:39:36.081Z,91.15
2023-08-05T03:42:09.149Z,91.02
2023-08-05T03:44:39.053Z,91.25
2023-08-05T03:47:08.960Z,91.31
2023-08-05T03:49:38.863Z,91.50
2023-08-05T03:52:09.683Z,91.42
2023-08-05T03:54:39.616Z,90.97
2023-08-05T03:57:12.322Z,91.35
2023-08-05T03:59:44.690Z,91.95
2023-08-05T04:02:15.682Z,92.41
2023-08-05T04:04:46.269Z,92.21
2023-08-05T04:07:20.104Z,92.08
2023-08-05T04:09:53.063Z,92.84
2023-08-05T04:12:26.670Z,92.96
2023-08-05T04:15:00.197Z,92.61
2023-08-05T04:17:32.039Z,92.22
2023-08-05T04:20:02.025Z,92.13
2023-08-05T04:22:31.886Z,91.86
2023-08-05T04:25:01.657Z,91.61
2023-08-05T04:27:34.055Z,91.31
2023-08-05T04:30:04.210Z,91.22
2023-08-05T04:32:34.211Z,91.66
2023-08-05T04:35:04.681Z,91.29
2023-08-05T04:37:34.283Z,91.04
2023-08-05T04:40:04.140Z,90.73
2023-08-05T04:42:36.613Z,90.72
2023-08-05T04:45:06.962Z,90.73
2023-08-05T04:47:36.936Z,90.36
2023-08-05T04:50:07.409Z,90.45
2023-08-05T04:52:37.249Z,90.23
2023-08-05T04:55:13.885Z,89.92
2023-08-05T04:57:46.533Z,89.96
2023-08-05T05:00:16.909Z,90.17
2023-08-05T05:02:46.757Z,90.01
2023-08-05T05:05:16.717Z,89.46
2023-08-05T05:07:46.611Z,89.97
2023-08-05T05:10:16.515Z,90.96
2023-08-05T05:12:49.920Z,91.15
2023-08-05T05:15:21.221Z,91.56
2023-08-05T05:17:51.870Z,91.63
2023-08-05T05:20:22.111Z,91.81
2023-08-05T05:22:51.998Z,91.80
2023-08-05T05:25:21.816Z,92.04
2023-08-05T05:27:54.273Z,92.07
2023-08-05T05:30:24.038Z,92.46
2023-08-05T05:32:53.939Z,92.69
2023-08-05T05:35:23.771Z,92.45
2023-08-05T05:37:53.663Z,93.03
2023-08-05T05:40:23.479Z,93.30
2023-08-05T05:42:58.072Z,93.05
2023-08-05T05:45:29.614Z,93.64
2023-08-05T05:47:59.488Z,93.72
2023-08-05T05:50:29.428Z,93.09
2023-08-05T05:52:59.369Z,92.73
2023-08-05T05:55:29.387Z,92.18
2023-08-05T05:58:01.836Z,91.91
2023-08-05T06:00:31.744Z,92.23
2023-08-05T06:03:02.069Z,91.99
2023-08-05T06:05:32.006Z,92.22
2023-08-05T06:08:01.840Z,92.19
2023-08-05T06:10:31.627Z,91.69
2023-08-05T06:13:05.225Z,91.10
2023-08-05T06:15:46.598Z,91.47
2023-08-05T06:18:20.108Z,90.80
2023-08-05T06:20:50.780Z,91.07
2023-08-05T06:23:20.722Z,89.34
2023-08-05T06:25:50.472Z,89.52
2023-08-05T06:28:22.868Z,90.17
2023-08-05T06:30:52.701Z,89.08
2023-08-05T06:33:23.099Z,89.21
2023-08-05T06:35:52.736Z,89.16
2023-08-05T06:38:22.613Z,89.64
2023-08-05T06:40:53.009Z,88.79
2023-08-05T06:43:26.857Z,89.63
2023-08-05T06:45:56.984Z,90.39
2023-08-05T06:48:27.201Z,89.44
2023-08-05T06:50:57.286Z,89.79
2023-08-05T06:53:27.470Z,88.69
2023-08-05T06:56:04.542Z,88.52
2023-08-05T06:58:37.102Z,87.52
2023-08-05T07:01:07.121Z,88.55
2023-08-05T07:03:37.093Z,88.15
2023-08-05T07:06:07.029Z,87.45
2023-08-05T07:08:36.914Z,86.87
2023-08-05T07:11:06.759Z,85.62
2023-08-05T07:13:39.187Z,86.67
2023-08-05T07:16:09.148Z,87.07
2023-08-05T07:18:39.069Z,86.23
2023-08-05T07:21:08.827Z,86.73
2023-08-05T07:23:38.601Z,85.33
2023-08-05T07:26:08.462Z,83.77
2023-08-05T07:28:40.930Z,84.58
2023-08-05T07:31:12.253Z,87.44
2023-08-05T07:33:43.723Z,84.85
2023-08-05T07:36:17.076Z,84.51
2023-08-05T07:38:47.959Z,84.62
2023-08-05T07:41:18.340Z,84.39
2023-08-05T07:43:52.337Z,84.78
2023-08-05T07:46:22.228Z,82.72
2023-08-05T07:48:53.810Z,82.59
2023-08-05T07:51:24.615Z,83.17
2023-08-05T07:53:55.343Z,83.61
2023-08-05T07:56:25.975Z,83.61
2023-08-05T07:58:58.437Z,82.34
2023-08-05T08:01:28.929Z,82.76
2023-08-05T08:04:03.378Z,80.10
2023-08-05T08:06:33.668Z,80.33
2023-08-05T08:09:03.505Z,80.74
2023-08-05T08:11:33.332Z,78.28
2023-08-05T08:14:06.363Z,78.28
2023-08-05T08:16:36.396Z,79.46
2023-08-05T08:19:07.165Z,76.10
2023-08-05T08:21:36.984Z,74.72
2023-08-05T08:24:08.862Z,73.53
2023-08-05T08:26:38.785Z,73.25
2023-08-05T08:29:11.350Z,70.73
2023-08-05T08:31:41.278Z,70.64
2023-08-05T08:34:11.159Z,72.24
2023-08-05T08:36:40.955Z,69.63
2023-08-05T08:39:10.818Z,67.23
2023-08-05T08:41:44.749Z,67.75
2023-08-05T08:44:19.687Z,67.30
2023-08-05T08:46:51.160Z,65.84
2023-08-05T08:49:21.468Z,65.26
2023-08-05T08:51:51.441Z,63.23
2023-08-05T08:54:21.715Z,59.80
2023-08-05T08:56:51.501Z,57.70
2023-08-05T08:59:24.097Z,57.75
2023-08-05T09:01:54.481Z,55.03
2023-08-05T09:04:25.052Z,54.65
2023-08-05T09:06:56.512Z,53.81
2023-08-05T09:09:26.403Z,53.80
2023-08-05T09:11:56.218Z,52.65
2023-08-05T09:14:28.781Z,50.82
2023-08-05T09:17:02.319Z,54.16
2023-08-05T09:19:33.187Z,47.75
2023-08-05T09:22:04.769Z,53.09
2023-08-05T09:24:34.705Z,52.66
2023-08-05T09:27:04.699Z,51.39
2023-08-05T09:29:38.027Z,51.51
2023-08-05T09:32:09.410Z,53.75
2023-08-05T09:34:40.343Z,53.50
2023-08-05T09:37:11.594Z,53.68
2023-08-05T09:39:48.065Z,54.43
2023-08-05T09:42:25.582Z,51.72
2023-08-05T09:45:00.221Z,49.68
2023-08-05T09:47:32.653Z,52.82
2023-08-05T09:50:06.350Z,48.99
2023-08-05T09:52:37.086Z,49.34
2023-08-05T09:55:08.940Z,51.58
2023-08-05T09:57:39.136Z,50.35
2023-08-05T10:00:13.937Z,51.30
2023-08-05T10:02:44.481Z,52.44
2023-08-05T10:05:15.268Z,52.05
2023-08-05T10:07:46.801Z,54.94
2023-08-05T10:10:21.350Z,55.00
2023-08-05T10:12:54.714Z,54.33
2023-08-05T10:15:31.303Z,53.19
2023-08-05T10:18:01.280Z,51.38
2023-08-05T10:20:38.538Z,47.13
2023-08-05T10:23:09.814Z,51.53
2023-08-05T10:25:44.469Z,51.54
2023-08-05T10:28:14.801Z,51.52
2023-08-05T10:30:47.635Z,52.84
2023-08-05T10:33:17.512Z,52.58
2023-08-05T10:35:47.737Z,52.36
2023-08-05T10:38:18.292Z,53.08
2023-08-05T10:40:53.000Z,53.21
2023-08-05T10:43:32.122Z,53.88
2023-08-05T10:46:05.916Z,47.74
2023-08-05T10:48:39.716Z,52.37
2023-08-05T10:51:11.797Z,49.06
2023-08-05T10:53:41.957Z,48.73
2023-08-05T10:56:12.352Z,52.60
2023-08-05T10:58:50.126Z,49.49
2023-08-05T11:01:22.607Z,51.69
2023-08-05T11:03:57.833Z,47.14
2023-08-05T11:06:29.086Z,48.46
2023-08-05T11:09:03.951Z,44.42
2023-08-05T11:11:34.019Z,48.61
2023-08-05T11:14:03.953Z,50.37
2023-08-05T11:16:36.447Z,51.72
2023-08-05T11:19:08.632Z,51.84
2023-08-05T11:21:39.625Z,52.56
2023-08-05T11:24:09.395Z,51.91
2023-08-05T11:26:39.293Z,50.44
2023-08-05T11:29:09.231Z,50.96
2023-08-05T11:31:41.719Z,49.58
2023-08-05T11:34:11.564Z,50.48
2023-08-05T11:36:41.367Z,52.46
2023-08-05T11:39:11.148Z,55.26
2023-08-05T11:41:41.011Z,54.55
2023-08-05T11:44:10.835Z,48.59
2023-08-05T11:46:52.985Z,49.46
2023-08-05T11:49:28.779Z,51.28
2023-08-05T11:51:58.570Z,51.49
2023-08-05T11:54:29.980Z,50.81
2023-08-05T11:57:00.866Z,49.63
2023-08-05T11:59:40.311Z,47.46
2023-08-05T12:02:13.923Z,50.32
2023-08-05T12:04:47.717Z,46.52
2023-08-05T12:07:18.660Z,51.34
2023-08-05T12:09:49.232Z,51.35
2023-08-05T12:12:20.035Z,51.24
2023-08-05T12:14:49.990Z,51.07
2023-08-05T12:17:22.418Z,51.26
2023-08-05T12:19:52.457Z,51.97
2023-08-05T12:22:22.274Z,48.48
2023-08-05T12:24:52.038Z,53.37
2023-08-05T12:27:21.921Z,54.50
2023-08-05T12:29:51.891Z,54.99
2023-08-05T12:32:24.344Z,52.79
2023-08-05T12:34:54.254Z,52.04
2023-08-05T12:37:24.007Z,53.36
2023-08-05T12:39:53.751Z,49.79
2023-08-05T12:42:23.576Z,50.79
2023-08-05T12:44:53.473Z,53.14
2023-08-05T12:47:26.015Z,49.49
2023-08-05T12:49:55.855Z,51.75
2023-08-05T12:52:34.136Z,52.61
2023-08-05T12:55:03.833Z,51.96
2023-08-05T12:57:33.988Z,51.94
2023-08-05T13:00:03.861Z,47.84
2023-08-05T13:02:36.516Z,47.65
2023-08-05T13:05:06.868Z,47.26
2023-08-05T13:07:37.261Z,49.43
2023-08-05T13:10:08.163Z,47.15
2023-08-05T13:12:38.699Z,47.21
2023-08-05T13:15:09.047Z,50.50
2023-08-05T13:17:41.428Z,48.54
2023-08-05T13:20:12.353Z,49.62
2023-08-05T13:22:42.244Z,52.27
2023-08-05T13:25:12.970Z,46.47
2023-08-05T13:27:43.450Z,49.15
2023-08-05T13:30:15.381Z,51.91
2023-08-05T13:32:47.989Z,50.90
2023-08-05T13:35:18.097Z,52.76
2023-08-05T13:37:47.782Z,52.49
2023-08-05T13:40:19.697Z,50.74
2023-08-05T13:42:49.675Z,53.89
2023-08-05T13:45:19.728Z,52.74
2023-08-05T13:47:54.640Z,52.73
2023-08-05T13:50:24.835Z,56.16
2023-08-05T13:52:54.611Z,53.49
2023-08-05T13:55:24.554Z,54.26
2023-08-05T13:57:54.725Z,56.29
2023-08-05T14:00:24.756Z,55.24
2023-08-05T14:02:57.884Z,56.64
2023-08-05T14:05:27.731Z,57.05
2023-08-05T14:07:57.520Z,56.79
2023-08-05T14:10:27.381Z,58.47
2023-08-05T14:12:57.415Z,56.47
2023-08-05T14:15:27.381Z,55.87
2023-08-05T14:17:59.931Z,54.68
2023-08-05T14:20:32.036Z,52.21
2023-08-05T14:23:02.099Z,54.99
2023-08-05T14:25:31.854Z,54.88
2023-08-05T14:28:01.770Z,54.37
2023-08-05T14:30:32.118Z,53.74
2023-08-05T14:33:04.728Z,53.70
2023-08-05T14:35:38.058Z,55.12
2023-08-05T14:38:09.192Z,53.24
2023-08-05T14:40:40.035Z,53.03
2023-08-05T14:43:09.857Z,54.60
2023-08-05T14:45:42.009Z,55.68
2023-08-05T14:48:14.701Z,55.11
2023-08-05T14:50:44.669Z,55.11
2023-08-05T14:53:14.492Z,55.59
2023-08-05T14:55:44.436Z,55.87
2023-08-05T14:58:14.403Z,54.04
2023-08-05T15:00:44.257Z,53.57
2023-08-05T15:03:16.783Z,55.44
2023-08-05T15:05:46.664Z,55.19
2023-08-05T15:08:16.604Z,55.67
2023-08-05T15:10:46.640Z,54.05
2023-08-05T15:13:16.538Z,54.25
2023-08-05T15:15:51.809Z,54.08
2023-08-05T15:18:24.472Z,53.50
2023-08-05T15:20:54.920Z,55.20
2023-08-05T15:23:30.661Z,57.29
2023-08-05T15:26:02.089Z,56.76
2023-08-05T15:28:32.429Z,55.18
2023-08-05T15:31:02.388Z,55.89
2023-08-05T15:33:35.052Z,56.48
2023-08-05T15:36:05.297Z,57.81
2023-08-05T15:38:35.139Z,57.16
2023-08-05T15:41:04.964Z,56.44
2023-08-05T15:43:35.026Z,54.61
2023-08-05T15:46:05.890Z,55.88
2023-08-05T15:48:38.344Z,56.02
2023-08-05T15:51:08.798Z,54.41
2023-08-05T15:53:38.395Z,54.80
2023-08-05T15:56:11.481Z,56.41
2023-08-05T15:58:41.543Z,56.90
2023-08-05T16:01:11.909Z,57.80
2023-08-05T16:03:44.415Z,58.94
2023-08-05T16:06:15.041Z,57.43
2023-08-05T16:08:45.163Z,56.38
2023-08-05T16:11:15.553Z,58.79
2023-08-05T16:13:45.512Z,59.07
2023-08-05T16:16:16.988Z,57.71
2023-08-05T16:18:51.897Z,57.45
2023-08-05T16:21:25.665Z,56.55
2023-08-05T16:23:58.007Z,56.16
2023-08-05T16:26:29.512Z,56.50
2023-08-05T16:28:59.285Z,55.58
2023-08-05T16:31:29.413Z,57.01
2023-08-05T16:34:01.959Z,56.71
2023-08-05T16:36:31.816Z,55.75
2023-08-05T16:39:03.507Z,55.96
2023-08-05T16:41:33.526Z,56.52
2023-08-05T16:44:04.149Z,58.97
2023-08-05T16:46:46.766Z,60.05
2023-08-05T16:49:21.111Z,61.30
2023-08-05T16:51:51.154Z,58.09
2023-08-05T16:54:20.859Z,59.37
2023-08-05T16:56:50.623Z,56.98
2023-08-05T16:59:20.483Z,57.09
2023-08-05T17:01:50.642Z,58.96
2023-08-05T17:04:23.298Z,57.72
2023-08-05T17:06:54.258Z,58.80
2023-08-05T17:09:24.055Z,61.23
2023-08-05T17:11:54.029Z,59.95
2023-08-05T17:14:24.172Z,60.50
2023-08-05T17:16:55.452Z,61.37
2023-08-05T17:19:27.972Z,61.79
2023-08-05T17:21:57.762Z,63.07
2023-08-05T17:24:29.334Z,63.29
2023-08-05T17:26:59.095Z,64.12
2023-08-05T17:29:28.832Z,65.56
2023-08-05T17:31:58.629Z,65.96
2023-08-05T17:34:31.048Z,66.82
2023-08-05T17:37:00.917Z,67.08
2023-08-05T17:39:30.648Z,66.62
2023-08-05T17:42:00.500Z,67.22
2023-08-05T17:44:32.418Z,67.78
2023-08-05T17:46:59.571Z,66.96
2023-08-05T17:49:31.944Z,66.73
2023-08-05T17:52:03.994Z,66.19
2023-08-05T17:54:33.805Z,65.29
2023-08-05T17:57:03.678Z,65.25
2023-08-05T17:59:33.492Z,63.82
2023-08-05T18:02:03.524Z,64.51
2023-08-05T18:04:35.948Z,63.99
2023-08-05T18:07:05.737Z,64.29
2023-08-05T18:09:35.510Z,65.97
2023-08-05T18:12:05.912Z,66.06
2023-08-05T18:14:35.741Z,65.72
2023-08-05T18:17:05.597Z,63.70
2023-08-05T18:22:33.339Z,64.29
2023-08-05T18:25:03.232Z,65.08
2023-08-05T18:27:33.143Z,64.99
2023-08-05T18:30:02.883Z,65.28
2023-08-05T18:32:32.701Z,65.86
2023-08-05T18:35:02.535Z,65.65
2023-08-05T18:37:34.896Z,65.49
2023-08-05T18:40:04.699Z,66.06
2023-08-05T18:42:34.488Z,66.80
2023-08-05T18:45:04.391Z,66.83
2023-08-05T18:47:34.337Z,66.71
2023-08-05T18:50:04.204Z,66.56
2023-08-05T18:52:36.734Z,66.38
2023-08-05T18:55:07.693Z,66.45
2023-08-05T18:57:37.474Z,66.18
2023-08-05T19:00:09.432Z,66.12
2023-08-05T19:02:39.256Z,65.84
2023-08-05T19:05:09.364Z,65.88
2023-08-05T19:07:42.033Z,65.83
2023-08-05T19:10:12.684Z,65.54
2023-08-05T19:12:42.551Z,65.69
2023-08-05T19:15:13.316Z,66.27
2023-08-05T19:17:43.141Z,66.10
2023-08-05T19:20:13.446Z,67.09
2023-08-05T19:22:46.365Z,66.49
2023-08-05T19:25:16.202Z,66.63
2023-08-05T19:27:54.497Z,66.17
2023-08-05T19:30:25.401Z,66.05
2023-08-05T19:32:57.186Z,65.84
2023-08-05T19:35:30.201Z,65.88
2023-08-05T19:38:02.610Z,65.93
2023-08-05T19:40:32.475Z,66.18
2023-08-05T19:43:02.273Z,66.19
2023-08-05T19:45:32.114Z,69.93
2023-08-05T19:48:01.954Z,68.69
2023-08-05T19:50:31.867Z,69.75
2023-08-05T19:53:04.282Z,69.39
2023-08-05T19:55:34.785Z,70.68
2023-08-05T19:58:04.680Z,71.44
2023-08-05T20:00:34.599Z,72.03
2023-08-05T20:03:04.508Z,74.20
2023-08-05T20:05:35.197Z,76.55
2023-08-05T20:08:08.297Z,77.90
2023-08-05T20:10:38.132Z,79.68
2023-08-05T20:13:07.991Z,81.15
2023-08-05T20:15:37.932Z,80.91
2023-08-05T20:18:08.054Z,81.35
2023-08-05T20:20:37.959Z,81.90
2023-08-05T20:23:11.000Z,82.35
2023-08-05T20:25:40.803Z,82.34
2023-08-05T20:28:10.661Z,82.43
2023-08-05T20:30:40.596Z,82.20
2023-08-05T20:33:10.549Z,82.61
2023-08-05T20:35:40.406Z,82.57
2023-08-05T20:38:14.354Z,82.93
2023-08-05T20:40:44.213Z,82.00
2023-08-05T20:43:14.117Z,81.64
2023-08-05T20:45:44.022Z,82.19
2023-08-05T20:48:13.874Z,81.39
2023-08-05T20:50:43.751Z,81.85
2023-08-05T20:53:18.545Z,82.09
2023-08-05T20:55:50.123Z,82.29
2023-08-05T20:58:21.517Z,81.77
2023-08-05T21:00:51.334Z,82.18
2023-08-05T21:03:21.229Z,82.04
2023-08-05T21:05:51.100Z,81.87
2023-08-05T21:08:23.571Z,82.09
2023-08-05T21:11:03.651Z,82.25
2023-08-05T21:13:33.409Z,82.22
2023-08-05T21:16:03.314Z,82.83
2023-08-05T21:18:33.918Z,82.33
2023-08-05T21:21:04.186Z,82.25
2023-08-05T21:23:36.569Z,82.87
2023-08-05T21:26:06.472Z,82.81
2023-08-05T21:28:36.346Z,82.56
2023-08-05T21:31:06.409Z,81.97
2023-08-05T21:33:36.344Z,82.37
2023-08-05T21:36:06.705Z,82.94
2023-08-05T21:38:38.899Z,83.10
2023-08-05T21:41:08.706Z,83.26
2023-08-05T21:43:38.558Z,83.08
2023-08-05T21:46:08.449Z,83.19
2023-08-05T21:48:38.297Z,82.83
2023-08-05T21:51:08.118Z,82.53
2023-08-05T21:53:40.522Z,83.17
2023-08-05T21:56:10.338Z,83.66
2023-08-05T21:58:40.238Z,83.13
2023-08-05T22:01:10.077Z,83.71
2023-08-05T22:03:39.978Z,84.52
2023-08-05T22:06:11.163Z,85.02
2023-08-05T22:08:43.575Z,83.41
2023-08-05T22:11:13.451Z,84.33
2023-08-05T22:13:44.254Z,84.27
2023-08-05T22:16:14.086Z,85.15
2023-08-05T22:18:44.577Z,84.84
2023-08-05T22:21:14.521Z,85.15
2023-08-05T22:23:46.919Z,85.09
2023-08-05T22:26:16.735Z,85.64
2023-08-05T22:28:47.727Z,85.44
2023-08-05T22:31:17.619Z,85.11
2023-08-05T22:33:47.492Z,85.18
2023-08-05T22:36:18.142Z,85.31
2023-08-05T22:38:50.568Z,84.83
2023-08-05T22:41:20.374Z,84.65
2023-08-05T22:43:52.850Z,85.40
2023-08-05T22:46:22.680Z,86.15
2023-08-05T22:48:52.508Z,85.50
2023-08-05T22:51:22.310Z,85.58
2023-08-05T22:53:54.764Z,85.74
2023-08-05T22:56:24.553Z,86.20
2023-08-05T22:58:55.906Z,86.66
2023-08-05T23:01:26.009Z,87.01
2023-08-05T23:03:55.870Z,87.34
2023-08-05T23:06:25.661Z,87.66
2023-08-05T23:08:58.087Z,87.41
2023-08-05T23:11:29.043Z,87.43
2023-08-05T23:13:58.918Z,87.66
2023-08-05T23:16:28.890Z,87.80
2023-08-05T23:18:58.770Z,88.55
2023-08-05T23:21:28.875Z,88.66
2023-08-05T23:24:01.383Z,88.66
2023-08-05T23:26:31.175Z,88.69
2023-08-05T23:29:01.562Z,88.14
2023-08-05T23:31:31.373Z,87.92
2023-08-05T23:34:01.269Z,88.35
2023-08-05T23:36:31.224Z,88.04
2023-08-05T23:39:03.612Z,87.70
2023-08-05T23:41:33.409Z,88.03
2023-08-05T23:44:03.281Z,88.22
2023-08-05T23:46:33.193Z,88.30
2023-08-05T23:49:03.203Z,87.93
2023-08-05T23:51:33.117Z,88.33
2023-08-05T23:54:05.615Z,88.45
2023-08-05T23:56:35.457Z,88.36
2023-08-05T23:59:05.241Z,88.33
